Time,TemperatureF,DewpointF,PressureIn,WindDirection,WindDirectionDegrees,WindSpeedMPH,WindSpeedGustMPH,Humidity,HourlyPrecipIn,Conditions,Clouds,dailyrainin,SoftwareType,DateUTC
2013-04-02 00:05:00,45.1,31.6,30.14,NNE,18,12.0,12.0,59,0.00,,---,0.00,VWS V14.00,2013-04-02 05:05:00,
2013-04-02 00:10:00,45.0,31.1,30.16,NNE,25,0.0,10.0,58,0.00,,---,0.00,VWS V14.00,2013-04-02 05:10:00,
2013-04-02 00:11:00,43.7,32.3,30.16,North,11,5.0,5.0,64,0.00,,---,0.00,VWS V14.00,2013-04-02 05:11:00,
2013-04-02 00:15:00,45.0,31.5,30.16,NE,41,4.0,11.0,59,0.00,,---,0.00,VWS V14.00,2013-04-02 05:15:00,
2013-04-02 00:21:00,44.9,31.5,30.16,NNE,32,0.0,0.0,59,0.00,,---,0.00,VWS V14.00,2013-04-02 05:21:00,
2013-04-02 00:26:00,44.9,31.5,30.16,NNE,30,0.0,9.0,59,0.00,,---,0.00,VWS V14.00,2013-04-02 05:26:00,
2013-04-02 00:28:00,43.7,32.3,30.16,NNE,27,0.0,7.0,64,0.00,,---,0.00,VWS V14.00,2013-04-02 05:28:00,
2013-04-02 00:30:00,43.7,32.3,30.15,ENE,72,0.0,6.0,64,0.00,,---,0.00,VWS V14.00,2013-04-02 05:30:00,
2013-04-02 00:32:00,44.8,31.4,30.16,NNE,19,15.0,15.0,59,0.00,,---,0.00,VWS V14.00,2013-04-02 05:32:00,
2013-04-02 00:33:00,43.7,32.0,30.15,NNE,21,5.0,10.0,63,0.00,,---,0.00,VWS V14.00,2013-04-02 05:33:00,
2013-04-02 00:34:00,43.7,32.0,30.15,NE,44,0.0,6.0,63,0.00,,---,0.00,VWS V14.00,2013-04-02 05:34:00,
2013-04-02 00:37:00,44.7,31.7,30.16,NNE,15,4.0,4.0,60,0.00,,---,0.00,VWS V14.00,2013-04-02 05:37:00,
2013-04-02 00:38:00,43.7,31.5,30.15,NNE,30,5.0,5.0,62,0.00,,---,0.00,VWS V14.00,2013-04-02 05:38:00,
2013-04-02 00:40:00,43.7,31.5,30.15,NNE,25,3.0,14.0,62,0.00,,---,0.00,VWS V14.00,2013-04-02 05:40:00,
2013-04-02 00:43:00,44.6,32.0,30.16,NE,44,0.0,11.0,61,0.00,,---,0.00,VWS V14.00,2013-04-02 05:43:00,
2013-04-02 00:47:00,43.8,31.6,30.16,North,6,3.0,7.0,62,0.00,,---,0.00,VWS V14.00,2013-04-02 05:47:00,
2013-04-02 00:48:00,44.5,31.9,30.16,NE,35,1.0,7.0,61,0.00,,---,0.00,VWS V14.00,2013-04-02 05:48:00,
2013-04-02 00:55:00,44.4,31.8,30.17,NNE,13,6.0,13.0,61,0.00,,---,0.00,VWS V14.00,2013-04-02 05:55:00,
2013-04-02 01:01:00,44.4,31.8,30.17,NNE,30,4.0,5.0,61,0.00,,---,0.00,VWS V14.00,2013-04-02 06:01:00,
2013-04-02 01:07:00,44.3,31.7,30.17,NNE,25,3.0,11.0,61,0.00,,---,0.00,VWS V14.00,2013-04-02 06:07:00,
2013-04-02 01:13:00,44.1,32.3,30.16,NNE,14,1.0,10.0,63,0.00,,---,0.00,VWS V14.00,2013-04-02 06:13:00,
2013-04-02 01:19:00,43.8,32.8,30.16,NNE,32,2.0,11.0,65,0.00,,---,0.00,VWS V14.00,2013-04-02 06:19:00,
2013-04-02 01:24:00,43.7,32.7,30.16,NNE,31,9.0,9.0,65,0.00,,---,0.00,VWS V14.00,2013-04-02 06:24:00,
2013-04-02 01:30:00,43.7,32.3,30.16,NNE,26,6.0,18.0,64,0.00,,---,0.00,VWS V14.00,2013-04-02 06:30:00,
2013-04-02 01:35:00,43.7,32.3,30.16,NE,38,0.0,3.0,64,0.00,,---,0.00,VWS V14.00,2013-04-02 06:35:00,
2013-04-02 01:41:00,43.7,32.0,30.15,NE,34,0.0,11.0,63,0.00,,---,0.00,VWS V14.00,2013-04-02 06:41:00,
2013-04-02 01:47:00,43.7,32.0,30.15,NNE,16,1.0,10.0,63,0.00,,---,0.00,VWS V14.00,2013-04-02 06:47:00,
2013-04-02 01:52:00,43.8,31.6,30.15,ENE,61,0.0,5.0,62,0.00,,---,0.00,VWS V14.00,2013-04-02 06:52:00,
2013-04-02 01:58:00,43.8,31.6,30.16,North,1,6.0,7.0,62,0.00,,---,0.00,VWS V14.00,2013-04-02 06:58:00,
2013-04-02 02:03:00,43.8,31.6,30.16,NNE,14,2.0,12.0,62,0.00,,---,0.00,VWS V14.00,2013-04-02 07:03:00,
2013-04-02 02:08:00,43.9,31.3,30.16,NNE,15,8.0,11.0,61,0.00,,---,0.00,VWS V14.00,2013-04-02 07:08:00,
2013-04-02 02:13:00,44.0,31.4,30.16,North,8,5.0,10.0,61,0.00,,---,0.00,VWS V14.00,2013-04-02 07:13:00,
2013-04-02 02:19:00,44.0,31.4,30.16,NNE,20,4.0,12.0,61,0.00,,---,0.00,VWS V14.00,2013-04-02 07:19:00,
2013-04-02 02:25:00,44.0,31.0,30.15,NNE,16,6.0,12.0,60,0.00,,---,0.00,VWS V14.00,2013-04-02 07:25:00,
2013-04-02 02:30:00,44.0,31.0,30.15,NNE,20,9.0,9.0,60,0.00,,---,0.00,VWS V14.00,2013-04-02 07:30:00,
2013-04-02 02:35:00,43.9,30.9,30.15,NE,37,13.0,13.0,60,0.00,,---,0.00,VWS V14.00,2013-04-02 07:35:00,
2013-04-02 02:41:00,43.9,30.9,30.15,ENE,73,9.0,14.0,60,0.00,,---,0.00,VWS V14.00,2013-04-02 07:41:00,
2013-04-02 02:47:00,43.8,30.8,30.15,NNE,30,1.0,13.0,60,0.00,,---,0.00,VWS V14.00,2013-04-02 07:47:00,
2013-04-02 02:53:00,43.8,30.8,30.15,NNE,12,2.0,13.0,60,0.00,,---,0.00,VWS V14.00,2013-04-02 07:53:00,
2013-04-02 02:58:00,43.8,30.8,30.14,North,4,0.0,0.0,60,0.00,,---,0.00,VWS V14.00,2013-04-02 07:58:00,
2013-04-02 03:04:00,43.7,30.7,30.14,North,0,7.0,11.0,60,0.00,,---,0.00,VWS V14.00,2013-04-02 08:04:00,
2013-04-02 03:09:00,43.7,30.7,30.14,NNE,21,6.0,7.0,60,0.00,,---,0.00,VWS V14.00,2013-04-02 08:09:00,
2013-04-02 03:15:00,43.6,31.0,30.14,NE,34,7.0,11.0,61,0.00,,---,0.00,VWS V14.00,2013-04-02 08:15:00,
2013-04-02 03:20:00,43.6,31.0,30.14,NE,40,10.0,11.0,61,0.00,,---,0.00,VWS V14.00,2013-04-02 08:20:00,
2013-04-02 03:26:00,43.6,31.0,30.16,North,7,5.0,14.0,61,0.00,,---,0.00,VWS V14.00,2013-04-02 08:26:00,
2013-04-02 03:32:00,43.5,31.8,30.16,North,1,0.0,7.0,63,0.00,,---,0.00,VWS V14.00,2013-04-02 08:32:00,
2013-04-02 03:37:00,43.4,31.7,30.16,NE,52,2.0,11.0,63,0.00,,---,0.00,VWS V14.00,2013-04-02 08:37:00,
2013-04-02 03:42:00,43.3,32.3,30.14,NNE,28,0.0,5.0,65,0.00,,---,0.00,VWS V14.00,2013-04-02 08:42:00,
2013-04-02 03:47:00,43.1,32.5,30.14,NNE,31,6.0,15.0,66,0.00,,---,0.00,VWS V14.00,2013-04-02 08:47:00,
2013-04-02 03:53:00,42.9,32.3,30.14,NE,38,6.0,14.0,66,0.00,,---,0.00,VWS V14.00,2013-04-02 08:53:00,
2013-04-02 03:58:00,42.7,32.5,30.14,NE,49,1.0,11.0,67,0.00,,---,0.00,VWS V14.00,2013-04-02 08:58:00,
2013-04-02 04:03:00,42.7,32.5,30.14,North,8,0.0,12.0,67,0.00,,---,0.00,VWS V14.00,2013-04-02 09:03:00,
2013-04-02 04:08:00,42.6,32.8,30.14,NNE,21,1.0,13.0,68,0.00,,---,0.00,VWS V14.00,2013-04-02 09:08:00,
2013-04-02 04:14:00,42.6,33.2,30.14,NE,36,0.0,10.0,69,0.00,,---,0.00,VWS V14.00,2013-04-02 09:14:00,
2013-04-02 04:20:00,42.4,33.7,30.14,NE,42,5.0,11.0,71,0.00,,---,0.00,VWS V14.00,2013-04-02 09:20:00,
2013-04-02 04:25:00,42.2,33.8,30.14,North,1,1.0,11.0,72,0.00,,---,0.00,VWS V14.00,2013-04-02 09:25:00,
2013-04-02 04:31:00,42.0,34.0,30.14,NNE,32,0.0,14.0,73,0.00,,---,0.00,VWS V14.00,2013-04-02 09:31:00,
2013-04-02 04:36:00,41.8,34.1,30.14,NNE,30,6.0,14.0,74,0.00,,---,0.00,VWS V14.00,2013-04-02 09:36:00,
2013-04-02 04:41:00,41.7,34.0,30.14,North,1,13.0,23.0,74,0.00,,---,0.00,VWS V14.00,2013-04-02 09:41:00,
2013-04-02 04:47:00,41.5,34.2,30.14,North,359,2.0,3.0,75,0.00,,---,0.00,VWS V14.00,2013-04-02 09:47:00,
2013-04-02 04:52:00,41.4,34.1,30.14,ENE,58,5.0,6.0,75,0.00,,---,0.00,VWS V14.00,2013-04-02 09:52:00,
2013-04-02 04:57:00,41.3,34.3,30.14,NE,46,5.0,9.0,76,0.00,,---,0.00,VWS V14.00,2013-04-02 09:57:00,
2013-04-02 05:02:00,41.3,34.3,30.14,NNE,16,5.0,5.0,76,0.00,,---,0.00,VWS V14.00,2013-04-02 10:02:00,
2013-04-02 05:07:00,41.2,33.9,30.14,ENE,58,0.0,1.0,75,0.00,,---,0.00,VWS V14.00,2013-04-02 10:07:00,
2013-04-02 05:12:00,41.2,33.9,30.14,NNE,16,0.0,6.0,75,0.00,,---,0.00,VWS V14.00,2013-04-02 10:12:00,
2013-04-02 05:18:00,41.3,33.7,30.14,NNE,13,0.0,2.0,74,0.00,,---,0.00,VWS V14.00,2013-04-02 10:18:00,
2013-04-02 05:23:00,41.3,33.7,30.14,NNE,26,0.0,3.0,74,0.00,,---,0.00,VWS V14.00,2013-04-02 10:23:00,
2013-04-02 05:29:00,41.4,33.8,30.14,NNE,25,4.0,11.0,74,0.00,,---,0.00,VWS V14.00,2013-04-02 10:29:00,
2013-04-02 05:35:00,41.5,33.5,30.14,NE,50,5.0,7.0,73,0.00,,---,0.00,VWS V14.00,2013-04-02 10:35:00,
2013-04-02 05:40:00,41.5,33.5,30.15,NNE,20,0.0,9.0,73,0.00,,---,0.00,VWS V14.00,2013-04-02 10:40:00,
2013-04-02 05:46:00,41.6,33.3,30.15,NNE,30,9.0,19.0,72,0.00,,---,0.00,VWS V14.00,2013-04-02 10:46:00,
2013-04-02 05:51:00,41.6,33.3,30.15,NNE,15,10.0,10.0,72,0.00,,---,0.00,VWS V14.00,2013-04-02 10:51:00,
2013-04-02 05:57:00,41.7,33.7,30.17,NNE,25,0.0,11.0,73,0.00,,---,0.00,VWS V14.00,2013-04-02 10:57:00,
2013-04-02 06:03:00,41.3,34.0,30.17,NNE,22,12.0,14.0,75,0.00,,---,0.00,VWS V14.00,2013-04-02 11:03:00,
2013-04-02 06:08:00,40.9,34.6,30.17,NNE,22,5.0,12.0,78,0.00,,---,0.00,VWS V14.00,2013-04-02 11:08:00,
2013-04-02 06:13:00,40.5,34.8,30.16,NNE,19,0.0,5.0,80,0.01,,---,0.01,VWS V14.00,2013-04-02 11:13:00,
2013-04-02 06:19:00,40.2,35.2,30.16,North,6,0.0,8.0,82,0.02,,---,0.02,VWS V14.00,2013-04-02 11:19:00,
2013-04-02 06:25:00,39.8,35.1,30.18,NNE,13,10.0,10.0,83,0.03,,---,0.03,VWS V14.00,2013-04-02 11:25:00,
2013-04-02 06:30:00,39.7,35.3,30.18,East,84,0.0,0.0,84,0.04,,---,0.04,VWS V14.00,2013-04-02 11:30:00,
2013-04-02 06:35:00,39.5,35.7,30.18,ENE,68,0.0,3.0,86,0.05,,---,0.05,VWS V14.00,2013-04-02 11:35:00,
2013-04-02 06:40:00,39.4,35.6,30.16,North,9,6.0,9.0,86,0.06,,---,0.06,VWS V14.00,2013-04-02 11:40:00,
2013-04-02 06:47:00,39.2,35.7,30.16,NE,47,1.0,5.0,87,0.07,,---,0.07,VWS V14.00,2013-04-02 11:47:00,
2013-04-02 06:52:00,39.1,35.8,30.16,North,5,2.0,6.0,88,0.07,,---,0.07,VWS V14.00,2013-04-02 11:52:00,
2013-04-02 06:57:00,39.1,35.8,30.16,NNE,32,11.0,13.0,88,0.07,,---,0.07,VWS V14.00,2013-04-02 11:57:00,
2013-04-02 07:02:00,39.1,35.8,30.16,NNE,33,0.0,0.0,88,0.07,,---,0.07,VWS V14.00,2013-04-02 12:02:00,
2013-04-02 07:08:00,39.2,36.0,30.16,ENE,77,2.0,9.0,88,0.07,,---,0.07,VWS V14.00,2013-04-02 12:08:00,
2013-04-02 07:13:00,39.2,36.0,30.17,NNE,16,0.0,8.0,88,0.07,,---,0.08,VWS V14.00,2013-04-02 12:13:00,
2013-04-02 07:18:00,39.2,36.0,30.17,NNE,19,6.0,15.0,88,0.06,,---,0.08,VWS V14.00,2013-04-02 12:18:00,
2013-04-02 07:23:00,39.2,36.0,30.17,NNE,24,0.0,10.0,88,0.05,,---,0.08,VWS V14.00,2013-04-02 12:23:00,
2013-04-02 07:29:00,39.2,36.0,30.17,North,4,7.0,9.0,88,0.04,,---,0.08,VWS V14.00,2013-04-02 12:29:00,
2013-04-02 07:34:00,39.1,35.8,30.17,NE,34,7.0,11.0,88,0.04,,---,0.09,VWS V14.00,2013-04-02 12:34:00,
2013-04-02 07:39:00,39.1,35.8,30.17,North,1,1.0,16.0,88,0.04,,---,0.09,VWS V14.00,2013-04-02 12:39:00,
2013-04-02 07:44:00,39.1,35.8,30.19,NE,43,0.0,5.0,88,0.03,,---,0.09,VWS V14.00,2013-04-02 12:44:00,
2013-04-02 07:50:00,39.1,35.8,30.19,North,357,10.0,10.0,88,0.02,,---,0.09,VWS V14.00,2013-04-02 12:50:00,
2013-04-02 07:55:00,39.0,35.8,30.20,NNE,27,0.0,9.0,88,0.02,,---,0.09,VWS V14.00,2013-04-02 12:55:00,
2013-04-02 08:01:00,39.0,35.8,30.20,NNE,20,0.0,0.0,88,0.02,,---,0.09,VWS V14.00,2013-04-02 13:01:00,
2013-04-02 08:07:00,39.0,36.0,30.20,NE,51,0.0,7.0,89,0.02,,---,0.09,VWS V14.00,2013-04-02 13:07:00,
2013-04-02 08:12:00,39.0,36.0,30.20,NE,46,1.0,12.0,89,0.01,,---,0.09,VWS V14.00,2013-04-02 13:12:00,
2013-04-02 08:17:00,39.0,36.0,30.20,NE,44,0.0,8.0,89,0.01,,---,0.09,VWS V14.00,2013-04-02 13:17:00,
2013-04-02 08:23:00,39.0,36.0,30.20,NE,39,6.0,9.0,89,0.01,,---,0.09,VWS V14.00,2013-04-02 13:23:00,
2013-04-02 08:29:00,38.9,35.9,30.20,ENE,68,10.0,10.0,89,0.01,,---,0.09,VWS V14.00,2013-04-02 13:29:00,
2013-04-02 08:34:00,38.9,35.9,30.20,NNE,15,4.0,15.0,89,0.00,,---,0.09,VWS V14.00,2013-04-02 13:34:00,
2013-04-02 08:39:00,38.8,35.8,30.20,NE,39,4.0,6.0,89,0.00,,---,0.09,VWS V14.00,2013-04-02 13:39:00,
2013-04-02 08:45:00,38.7,35.7,30.20,NE,37,5.0,11.0,89,0.01,,---,0.10,VWS V14.00,2013-04-02 13:45:00,
2013-04-02 08:51:00,38.6,35.9,30.20,NNE,32,7.0,11.0,90,0.01,,---,0.10,VWS V14.00,2013-04-02 13:51:00,
2013-04-02 08:57:00,38.4,35.7,30.19,NE,46,0.0,0.0,90,0.01,,---,0.10,VWS V14.00,2013-04-02 13:57:00,
2013-04-02 09:03:00,38.5,36.1,30.19,NE,56,2.0,7.0,91,0.01,,---,0.10,VWS V14.00,2013-04-02 14:03:00,
2013-04-02 09:08:00,38.4,36.0,30.19,NE,52,0.0,6.0,91,0.01,,---,0.10,VWS V14.00,2013-04-02 14:08:00,
2013-04-02 09:13:00,38.5,36.1,30.19,NNE,17,2.0,7.0,91,0.02,,---,0.11,VWS V14.00,2013-04-02 14:13:00,
2013-04-02 09:19:00,38.5,36.4,30.19,NE,47,0.0,6.0,92,0.02,,---,0.11,VWS V14.00,2013-04-02 14:19:00,
2013-04-02 09:24:00,38.5,36.1,30.19,NE,48,7.0,11.0,91,0.02,,---,0.11,VWS V14.00,2013-04-02 14:24:00,
2013-04-02 09:29:00,38.4,36.3,30.19,NE,53,0.0,0.0,92,0.02,,---,0.11,VWS V14.00,2013-04-02 14:29:00,
2013-04-02 09:34:00,38.5,36.4,30.19,North,356,1.0,2.0,92,0.02,,---,0.11,VWS V14.00,2013-04-02 14:34:00,
2013-04-02 09:40:00,38.5,36.4,30.20,NNE,23,0.0,2.0,92,0.02,,---,0.11,VWS V14.00,2013-04-02 14:40:00,
2013-04-02 09:45:00,38.6,36.5,30.20,North,9,6.0,11.0,92,0.02,,---,0.11,VWS V14.00,2013-04-02 14:45:00,
2013-04-02 09:51:00,38.6,36.5,30.20,ENE,66,0.0,5.0,92,0.01,,---,0.11,VWS V14.00,2013-04-02 14:51:00,
2013-04-02 09:56:00,38.7,36.6,30.19,NNE,32,5.0,7.0,92,0.01,,---,0.11,VWS V14.00,2013-04-02 14:56:00,
2013-04-02 10:01:00,38.7,36.6,30.19,ENE,60,0.0,10.0,92,0.01,,---,0.11,VWS V14.00,2013-04-02 15:01:00,
2013-04-02 10:07:00,38.9,36.8,30.19,NE,40,0.0,13.0,92,0.01,,---,0.11,VWS V14.00,2013-04-02 15:07:00,
2013-04-02 10:12:00,39.0,36.9,30.20,ENE,75,0.0,0.0,92,0.01,,---,0.11,VWS V14.00,2013-04-02 15:12:00,
2013-04-02 10:18:00,39.2,37.3,30.20,ENE,72,7.0,9.0,93,0.00,,---,0.11,VWS V14.00,2013-04-02 15:18:00,
2013-04-02 10:23:00,39.2,37.1,30.20,NE,39,5.0,13.0,92,0.00,,---,0.11,VWS V14.00,2013-04-02 15:23:00,
2013-04-02 10:29:00,39.3,37.2,30.18,NNE,17,6.0,7.0,92,0.00,,---,0.11,VWS V14.00,2013-04-02 15:29:00,
2013-04-02 10:34:00,39.5,37.4,30.18,East,101,0.0,3.0,92,0.00,,---,0.11,VWS V14.00,2013-04-02 15:34:00,
2013-04-02 10:39:00,39.5,37.4,30.18,NE,48,0.0,4.0,92,0.00,,---,0.11,VWS V14.00,2013-04-02 15:39:00,
2013-04-02 10:45:00,39.6,37.2,30.19,ENE,64,4.0,9.0,91,0.00,,---,0.11,VWS V14.00,2013-04-02 15:45:00,
2013-04-02 10:50:00,39.7,37.3,30.19,ENE,64,2.0,2.0,91,0.00,,---,0.11,VWS V14.00,2013-04-02 15:50:00,
2013-04-02 10:55:00,39.7,37.3,30.18,ENE,73,0.0,6.0,91,0.00,,---,0.11,VWS V14.00,2013-04-02 15:55:00,
2013-04-02 11:01:00,39.7,37.3,30.18,NE,53,0.0,11.0,91,0.00,,---,0.11,VWS V14.00,2013-04-02 16:01:00,
2013-04-02 11:06:00,39.7,37.3,30.18,ENE,60,8.0,8.0,91,0.00,,---,0.11,VWS V14.00,2013-04-02 16:06:00,
2013-04-02 11:12:00,39.8,37.4,30.18,ENE,68,1.0,10.0,91,0.00,,---,0.11,VWS V14.00,2013-04-02 16:12:00,
2013-04-02 11:17:00,39.9,37.5,30.18,NE,45,0.0,10.0,91,0.00,,---,0.11,VWS V14.00,2013-04-02 16:17:00,
2013-04-02 11:23:00,40.0,37.3,30.18,NNE,25,0.0,9.0,90,0.00,,---,0.11,VWS V14.00,2013-04-02 16:23:00,
2013-04-02 11:28:00,40.0,37.3,30.18,NNE,33,0.0,5.0,90,0.00,,---,0.11,VWS V14.00,2013-04-02 16:28:00,
2013-04-02 11:33:00,40.1,37.4,30.18,ENE,58,0.0,5.0,90,0.00,,---,0.11,VWS V14.00,2013-04-02 16:33:00,
2013-04-02 11:39:00,40.2,37.5,30.18,NE,34,0.0,10.0,90,0.00,,---,0.11,VWS V14.00,2013-04-02 16:39:00,
2013-04-02 11:45:00,40.2,37.5,30.19,East,81,6.0,7.0,90,0.01,,---,0.12,VWS V14.00,2013-04-02 16:45:00,
2013-04-02 11:50:00,40.1,37.4,30.19,East,79,5.0,13.0,90,0.01,,---,0.12,VWS V14.00,2013-04-02 16:50:00,
2013-04-02 11:55:00,40.1,37.4,30.21,East,89,0.0,0.0,90,0.02,,---,0.13,VWS V14.00,2013-04-02 16:55:00,
2013-04-02 12:00:00,40.1,37.7,30.21,East,87,0.0,0.0,91,0.02,,---,0.13,VWS V14.00,2013-04-02 17:00:00,
2013-04-02 12:06:00,40.2,37.8,30.21,East,87,0.0,0.0,91,0.03,,---,0.14,VWS V14.00,2013-04-02 17:06:00,
2013-04-02 12:12:00,40.3,38.2,30.21,East,86,0.0,0.0,92,0.04,,---,0.15,VWS V14.00,2013-04-02 17:12:00,
2013-04-02 12:17:00,40.2,38.1,30.21,North,1,0.0,5.0,92,0.05,,---,0.16,VWS V14.00,2013-04-02 17:17:00,
2013-04-02 12:23:00,40.2,38.1,30.21,NNE,32,0.0,0.0,92,0.06,,---,0.17,VWS V14.00,2013-04-02 17:23:00,
2013-04-02 12:28:00,40.2,38.1,30.22,NNE,20,4.0,4.0,92,0.06,,---,0.17,VWS V14.00,2013-04-02 17:28:00,
2013-04-02 12:33:00,40.2,38.1,30.22,NNE,14,0.0,5.0,92,0.07,,---,0.18,VWS V14.00,2013-04-02 17:33:00,
2013-04-02 12:39:00,40.1,38.0,30.22,North,8,0.0,5.0,92,0.08,,---,0.19,VWS V14.00,2013-04-02 17:39:00,
2013-04-02 12:45:00,40.1,38.2,30.22,NE,37,0.0,5.0,93,0.07,,---,0.19,VWS V14.00,2013-04-02 17:45:00,
2013-04-02 12:52:00,40.1,38.2,30.22,NE,56,0.0,5.0,93,0.08,,---,0.20,VWS V14.00,2013-04-02 17:52:00,
2013-04-02 12:57:00,40.0,38.1,30.21,NNE,32,0.0,0.0,93,0.08,,---,0.21,VWS V14.00,2013-04-02 17:57:00,
2013-04-02 13:02:00,40.2,38.3,30.21,ENE,64,0.0,0.0,93,0.09,,---,0.22,VWS V14.00,2013-04-02 18:02:00,
2013-04-02 13:08:00,40.1,38.5,30.21,NE,35,0.0,0.0,94,0.09,,---,0.23,VWS V14.00,2013-04-02 18:08:00,
2013-04-02 13:13:00,40.1,38.5,30.20,NNE,18,0.0,10.0,94,0.08,,---,0.23,VWS V14.00,2013-04-02 18:13:00,
2013-04-02 13:18:00,40.1,38.5,30.20,NE,47,0.0,0.0,94,0.08,,---,0.24,VWS V14.00,2013-04-02 18:18:00,
2013-04-02 13:24:00,40.1,38.5,30.20,NE,39,3.0,8.0,94,0.07,,---,0.24,VWS V14.00,2013-04-02 18:24:00,
2013-04-02 13:29:00,40.0,38.4,30.19,NNE,13,0.0,6.0,94,0.07,,---,0.24,VWS V14.00,2013-04-02 18:29:00,
2013-04-02 13:34:00,40.0,38.4,30.19,ENE,75,0.0,6.0,94,0.06,,---,0.24,VWS V14.00,2013-04-02 18:34:00,
2013-04-02 13:39:00,40.2,38.6,30.19,NNE,13,2.0,9.0,94,0.05,,---,0.24,VWS V14.00,2013-04-02 18:39:00,
2013-04-02 13:45:00,40.4,38.8,30.16,NNE,22,3.0,4.0,94,0.05,,---,0.24,VWS V14.00,2013-04-02 18:45:00,
2013-04-02 13:51:00,40.4,38.8,30.16,NE,49,0.0,7.0,94,0.04,,---,0.24,VWS V14.00,2013-04-02 18:51:00,
2013-04-02 13:57:00,40.6,39.3,30.17,ENE,60,9.0,9.0,95,0.03,,---,0.24,VWS V14.00,2013-04-02 18:57:00,
2013-04-02 14:03:00,40.5,38.9,30.17,NNE,18,0.0,13.0,94,0.02,,---,0.24,VWS V14.00,2013-04-02 19:03:00,
2013-04-02 14:08:00,40.5,38.9,30.17,NE,51,0.0,2.0,94,0.01,,---,0.24,VWS V14.00,2013-04-02 19:08:00,
2013-04-02 14:13:00,40.6,39.0,30.17,ENE,66,0.0,0.0,94,0.01,,---,0.24,VWS V14.00,2013-04-02 19:13:00,
2013-04-02 14:18:00,40.7,39.1,30.17,NNE,18,0.0,0.0,94,0.00,,---,0.24,VWS V14.00,2013-04-02 19:18:00,
2013-04-02 14:24:00,40.5,38.9,30.17,North,359,1.0,5.0,94,0.00,,---,0.24,VWS V14.00,2013-04-02 19:24:00,
2013-04-02 14:29:00,40.5,38.9,30.18,North,1,1.0,4.0,94,0.01,,---,0.25,VWS V14.00,2013-04-02 19:29:00,
2013-04-02 14:34:00,40.5,38.9,30.18,NNE,21,0.0,0.0,94,0.01,,---,0.25,VWS V14.00,2013-04-02 19:34:00,
2013-04-02 14:40:00,40.5,38.9,30.16,ENE,62,0.0,7.0,94,0.01,,---,0.25,VWS V14.00,2013-04-02 19:40:00,
2013-04-02 14:46:00,40.5,38.9,30.16,NNE,16,9.0,9.0,94,0.02,,---,0.26,VWS V14.00,2013-04-02 19:46:00,
2013-04-02 14:51:00,40.5,38.9,30.16,NE,41,3.0,3.0,94,0.03,,---,0.27,VWS V14.00,2013-04-02 19:51:00,
2013-04-02 14:57:00,40.6,39.0,30.16,NE,34,0.0,6.0,94,0.04,,---,0.28,VWS V14.00,2013-04-02 19:57:00,
2013-04-02 15:02:00,40.7,39.4,30.16,NE,44,0.0,0.0,95,0.04,,---,0.28,VWS V14.00,2013-04-02 20:02:00,
2013-04-02 15:07:00,40.9,39.6,30.16,NE,56,0.0,7.0,95,0.04,,---,0.28,VWS V14.00,2013-04-02 20:07:00,
2013-04-02 15:12:00,41.0,39.7,30.16,East,82,0.0,4.0,95,0.04,,---,0.28,VWS V14.00,2013-04-02 20:12:00,
2013-04-02 15:17:00,40.9,39.6,30.16,East,80,0.0,2.0,95,0.04,,---,0.28,VWS V14.00,2013-04-02 20:17:00,
2013-04-02 15:23:00,41.0,39.7,30.16,NNE,30,0.0,3.0,95,0.04,,---,0.28,VWS V14.00,2013-04-02 20:23:00,
2013-04-02 15:28:00,40.9,39.3,30.18,NE,50,0.0,7.0,94,0.04,,---,0.28,VWS V14.00,2013-04-02 20:28:00,
2013-04-02 15:33:00,40.9,39.3,30.18,ENE,62,1.0,7.0,94,0.03,,---,0.28,VWS V14.00,2013-04-02 20:33:00,
2013-04-02 15:38:00,40.9,39.3,30.18,ENE,61,0.0,0.0,94,0.04,,---,0.29,VWS V14.00,2013-04-02 20:38:00,
2013-04-02 15:44:00,40.9,39.3,30.17,ENE,66,0.0,8.0,94,0.03,,---,0.29,VWS V14.00,2013-04-02 20:44:00,
2013-04-02 15:50:00,40.9,39.3,30.17,East,80,6.0,11.0,94,0.02,,---,0.29,VWS V14.00,2013-04-02 20:50:00,
2013-04-02 15:55:00,40.9,39.3,30.16,ENE,65,7.0,7.0,94,0.01,,---,0.29,VWS V14.00,2013-04-02 20:55:00,
2013-04-02 16:00:00,40.9,39.3,30.16,ENE,65,0.0,7.0,94,0.01,,---,0.29,VWS V14.00,2013-04-02 21:00:00,
2013-04-02 16:05:00,40.9,39.3,30.16,ENE,65,0.0,0.0,94,0.01,,---,0.29,VWS V14.00,2013-04-02 21:05:00,
2013-04-02 16:12:00,40.9,39.3,30.16,ENE,63,0.0,0.0,94,0.01,,---,0.29,VWS V14.00,2013-04-02 21:12:00,
2013-04-02 16:18:00,41.0,39.4,30.16,NE,53,0.0,0.0,94,0.02,,---,0.30,VWS V14.00,2013-04-02 21:18:00,
2013-04-02 16:23:00,40.9,39.3,30.16,NE,41,0.0,15.0,94,0.02,,---,0.30,VWS V14.00,2013-04-02 21:23:00,
2013-04-02 16:28:00,40.8,39.2,30.17,NNE,33,0.0,0.0,94,0.03,,---,0.31,VWS V14.00,2013-04-02 21:28:00,
2013-04-02 16:34:00,40.8,39.5,30.17,NE,40,0.0,10.0,95,0.03,,---,0.31,VWS V14.00,2013-04-02 21:34:00,
2013-04-02 16:39:00,40.7,39.4,30.17,ENE,75,0.0,0.0,95,0.02,,---,0.31,VWS V14.00,2013-04-02 21:39:00,
2013-04-02 16:44:00,40.7,39.4,30.16,NE,51,0.0,0.0,95,0.03,,---,0.32,VWS V14.00,2013-04-02 21:44:00,
2013-04-02 16:49:00,40.7,39.4,30.16,NNE,14,0.0,4.0,95,0.03,,---,0.32,VWS V14.00,2013-04-02 21:49:00,
2013-04-02 16:55:00,40.8,39.5,30.14,NE,39,11.0,11.0,95,0.04,,---,0.33,VWS V14.00,2013-04-02 21:55:00,
2013-04-02 17:00:00,40.8,39.5,30.14,NE,49,0.0,7.0,95,0.04,,---,0.33,VWS V14.00,2013-04-02 22:00:00,
2013-04-02 17:05:00,40.8,39.5,30.14,North,359,10.0,10.0,95,0.04,,---,0.33,VWS V14.00,2013-04-02 22:05:00,
2013-04-02 17:10:00,40.8,39.5,30.15,NNE,29,0.0,9.0,95,0.05,,---,0.34,VWS V14.00,2013-04-02 22:10:00,
2013-04-02 17:15:00,40.8,39.5,30.15,NE,46,0.0,7.0,95,0.05,,---,0.34,VWS V14.00,2013-04-02 22:15:00,
2013-04-02 17:22:00,40.8,39.5,30.15,NE,34,0.0,5.0,95,0.04,,---,0.34,VWS V14.00,2013-04-02 22:22:00,
2013-04-02 17:28:00,40.9,39.6,30.15,NNE,17,5.0,5.0,95,0.05,,---,0.35,VWS V14.00,2013-04-02 22:28:00,
2013-04-02 17:33:00,40.9,39.6,30.15,NE,34,7.0,11.0,95,0.05,,---,0.36,VWS V14.00,2013-04-02 22:33:00,
2013-04-02 17:38:00,40.9,39.6,30.15,NE,34,1.0,10.0,95,0.05,,---,0.36,VWS V14.00,2013-04-02 22:38:00,
2013-04-02 17:45:00,40.9,39.6,30.14,North,1,0.0,0.0,95,0.04,,---,0.36,VWS V14.00,2013-04-02 22:45:00,
2013-04-02 17:52:00,40.9,39.6,30.14,NNE,20,6.0,7.0,95,0.05,,---,0.37,VWS V14.00,2013-04-02 22:52:00,
2013-04-02 17:57:00,40.9,39.6,30.14,ENE,68,0.0,0.0,95,0.04,,---,0.37,VWS V14.00,2013-04-02 22:57:00,
2013-04-02 18:03:00,40.9,39.6,30.14,ENE,67,6.0,10.0,95,0.05,,---,0.38,VWS V14.00,2013-04-02 23:03:00,
2013-04-02 18:08:00,40.9,39.6,30.14,NNE,23,10.0,10.0,95,0.05,,---,0.38,VWS V14.00,2013-04-02 23:08:00,
2013-04-02 18:14:00,40.9,39.6,30.14,NE,37,0.0,2.0,95,0.04,,---,0.38,VWS V14.00,2013-04-02 23:14:00,
2013-04-02 18:19:00,40.9,39.6,30.14,ENE,68,5.0,7.0,95,0.04,,---,0.38,VWS V14.00,2013-04-02 23:19:00,
2013-04-02 18:24:00,40.9,39.6,30.14,NE,49,7.0,7.0,95,0.04,,---,0.38,VWS V14.00,2013-04-02 23:24:00,
2013-04-02 18:29:00,40.9,39.6,30.14,NNE,21,3.0,6.0,95,0.03,,---,0.38,VWS V14.00,2013-04-02 23:29:00,
2013-04-02 18:35:00,40.9,39.6,30.14,ENE,61,0.0,9.0,95,0.02,,---,0.38,VWS V14.00,2013-04-02 23:35:00,
2013-04-02 18:41:00,40.8,39.5,30.16,NE,56,6.0,6.0,95,0.02,,---,0.38,VWS V14.00,2013-04-02 23:41:00,
2013-04-02 18:47:00,40.9,39.6,30.16,North,11,0.0,0.0,95,0.01,,---,0.38,VWS V14.00,2013-04-02 23:47:00,
2013-04-02 18:53:00,40.8,39.5,30.16,NE,38,14.0,14.0,95,0.01,,---,0.38,VWS V14.00,2013-04-02 23:53:00,
2013-04-02 18:59:00,40.7,39.4,30.17,NE,38,0.0,5.0,95,0.00,,---,0.38,VWS V14.00,2013-04-02 23:59:00,
2013-04-02 19:05:00,40.7,39.4,30.17,NE,34,0.0,0.0,95,0.00,,---,0.38,VWS V14.00,2013-04-03 00:05:00,
2013-04-02 19:10:00,40.8,39.5,30.16,NE,53,0.0,0.0,95,0.00,,---,0.38,VWS V14.00,2013-04-03 00:10:00,
2013-04-02 19:16:00,40.8,39.5,30.16,North,10,0.0,0.0,95,0.00,,---,0.38,VWS V14.00,2013-04-03 00:16:00,
2013-04-02 19:21:00,40.9,39.6,30.16,NNE,18,0.0,6.0,95,0.00,,---,0.38,VWS V14.00,2013-04-03 00:21:00,
2013-04-02 19:26:00,40.9,39.6,30.17,ENE,68,0.0,0.0,95,0.00,,---,0.38,VWS V14.00,2013-04-03 00:26:00,
2013-04-02 19:32:00,40.8,39.5,30.17,North,9,2.0,3.0,95,0.00,,---,0.38,VWS V14.00,2013-04-03 00:32:00,
2013-04-02 19:38:00,40.7,39.4,30.17,ENE,58,0.0,4.0,95,0.00,,---,0.38,VWS V14.00,2013-04-03 00:38:00,
2013-04-02 19:44:00,40.7,39.4,30.16,NNE,28,5.0,7.0,95,0.00,,---,0.38,VWS V14.00,2013-04-03 00:44:00,
2013-04-02 19:49:00,40.7,39.4,30.16,East,94,5.0,5.0,95,0.00,,---,0.38,VWS V14.00,2013-04-03 00:49:00,
2013-04-02 19:54:00,40.6,39.0,30.16,ENE,72,10.0,10.0,94,0.00,,---,0.38,VWS V14.00,2013-04-03 00:54:00,
2013-04-02 19:59:00,40.5,38.9,30.15,ENE,76,0.0,0.0,94,0.00,,---,0.38,VWS V14.00,2013-04-03 00:59:00,
2013-04-02 20:04:00,40.5,38.9,30.15,ENE,65,0.0,7.0,94,0.00,,---,0.38,VWS V14.00,2013-04-03 01:04:00,
2013-04-02 20:10:00,40.5,39.2,30.15,NNE,15,0.0,2.0,95,0.00,,---,0.38,VWS V14.00,2013-04-03 01:10:00,
2013-04-02 20:16:00,40.5,39.2,30.15,East,89,0.0,0.0,95,0.00,,---,0.38,VWS V14.00,2013-04-03 01:16:00,
2013-04-02 20:21:00,40.5,39.2,30.15,ESE,108,0.0,0.0,95,0.00,,---,0.38,VWS V14.00,2013-04-03 01:21:00,
2013-04-02 20:26:00,40.4,39.1,30.15,NE,51,2.0,6.0,95,0.00,,---,0.38,VWS V14.00,2013-04-03 01:26:00,
2013-04-02 20:32:00,40.4,39.1,30.15,NE,35,5.0,11.0,95,0.00,,---,0.38,VWS V14.00,2013-04-03 01:32:00,
2013-04-02 20:37:00,40.4,39.1,30.15,NE,41,0.0,0.0,95,0.00,,---,0.38,VWS V14.00,2013-04-03 01:37:00,
2013-04-02 20:43:00,40.3,39.0,30.16,NNE,14,0.0,0.0,95,0.00,,---,0.38,VWS V14.00,2013-04-03 01:43:00,
2013-04-02 20:48:00,40.4,39.1,30.16,North,358,0.0,0.0,95,0.00,,---,0.38,VWS V14.00,2013-04-03 01:48:00,
2013-04-02 20:53:00,40.4,39.1,30.16,NE,44,0.0,4.0,95,0.00,,---,0.38,VWS V14.00,2013-04-03 01:53:00,
2013-04-02 20:58:00,40.4,39.1,30.16,NE,56,0.0,0.0,95,0.00,,---,0.38,VWS V14.00,2013-04-03 01:58:00,
2013-04-02 21:03:00,40.4,39.1,30.16,NNE,26,2.0,3.0,95,0.00,,---,0.38,VWS V14.00,2013-04-03 02:03:00,
2013-04-02 21:09:00,40.4,39.1,30.16,ESE,105,0.0,0.0,95,0.00,,---,0.38,VWS V14.00,2013-04-03 02:09:00,
2013-04-02 21:14:00,40.3,39.0,30.16,NNE,32,0.0,12.0,95,0.01,,---,0.39,VWS V14.00,2013-04-03 02:14:00,
2013-04-02 21:19:00,40.2,38.9,30.16,NE,53,0.0,3.0,95,0.01,,---,0.39,VWS V14.00,2013-04-03 02:19:00,
2013-04-02 21:25:00,40.0,38.7,30.16,NNE,30,2.0,7.0,95,0.01,,---,0.39,VWS V14.00,2013-04-03 02:25:00,
2013-04-02 21:30:00,39.9,38.6,30.16,ENE,71,0.0,5.0,95,0.01,,---,0.39,VWS V14.00,2013-04-03 02:30:00,
2013-04-02 21:35:00,39.9,38.6,30.16,ENE,71,0.0,3.0,95,0.01,,---,0.39,VWS V14.00,2013-04-03 02:35:00,
2013-04-02 21:40:00,39.8,38.5,30.16,NE,49,0.0,6.0,95,0.01,,---,0.39,VWS V14.00,2013-04-03 02:40:00,
2013-04-02 21:46:00,39.8,38.5,30.16,East,100,0.0,6.0,95,0.01,,---,0.39,VWS V14.00,2013-04-03 02:46:00,
2013-04-02 21:50:00,39.5,38.5,30.17,ENE,67,0.0,0.0,96,0.00,,---,0.39,VWS V14.00,2013-04-03 02:50:00,
2013-04-02 21:51:00,39.5,38.5,30.17,ENE,66,0.0,4.0,96,0.00,,---,0.39,VWS V14.00,2013-04-03 02:51:00,
2013-04-02 21:52:00,39.7,38.4,30.16,East,91,0.0,6.0,95,0.01,,---,0.39,VWS V14.00,2013-04-03 02:52:00,
2013-04-02 21:53:00,39.5,38.5,30.17,ENE,66,0.0,0.0,96,0.00,,---,0.39,VWS V14.00,2013-04-03 02:53:00,
2013-04-02 21:54:00,39.5,38.5,30.17,ENE,66,0.0,0.0,96,0.00,,---,0.39,VWS V14.00,2013-04-03 02:54:00,
2013-04-02 21:55:00,39.5,38.5,30.17,ENE,67,0.0,0.0,96,0.00,,---,0.39,VWS V14.00,2013-04-03 02:55:00,
2013-04-02 21:56:00,39.5,38.5,30.17,NNE,20,6.0,6.0,96,0.00,,---,0.39,VWS V14.00,2013-04-03 02:56:00,
2013-04-02 21:57:00,39.7,38.4,30.16,NE,53,0.0,2.0,95,0.01,,---,0.39,VWS V14.00,2013-04-03 02:57:00,
2013-04-02 21:58:00,39.5,38.5,30.17,East,80,2.0,2.0,96,0.00,,---,0.39,VWS V14.00,2013-04-03 02:58:00,
2013-04-02 21:59:00,39.5,38.5,30.17,NNE,13,0.0,5.0,96,0.00,,---,0.39,VWS V14.00,2013-04-03 02:59:00,
2013-04-02 22:00:00,39.4,38.4,30.17,North,11,6.0,6.0,96,0.00,,---,0.39,VWS V14.00,2013-04-03 03:00:00,
2013-04-02 22:01:00,39.5,38.5,30.17,NE,55,0.0,6.0,96,0.00,,---,0.39,VWS V14.00,2013-04-03 03:01:00,
2013-04-02 22:02:00,39.7,38.7,30.16,NE,56,0.0,0.0,96,0.01,,---,0.39,VWS V14.00,2013-04-03 03:02:00,
2013-04-02 22:03:00,39.5,38.5,30.17,NE,56,0.0,0.0,96,0.00,,---,0.39,VWS V14.00,2013-04-03 03:03:00,
2013-04-02 22:04:00,39.5,38.5,30.17,ENE,77,0.0,4.0,96,0.00,,---,0.39,VWS V14.00,2013-04-03 03:04:00,
2013-04-02 22:05:00,39.5,38.5,30.17,ENE,76,0.0,0.0,96,0.00,,---,0.39,VWS V14.00,2013-04-03 03:05:00,
2013-04-02 22:06:00,39.5,38.5,30.17,North,3,3.0,3.0,96,0.00,,---,0.39,VWS V14.00,2013-04-03 03:06:00,
2013-04-02 22:07:00,39.7,38.7,30.16,ENE,73,0.0,0.0,96,0.01,,---,0.39,VWS V14.00,2013-04-03 03:07:00,
2013-04-02 22:08:00,39.5,38.5,30.17,ESE,113,0.0,3.0,96,0.00,,---,0.39,VWS V14.00,2013-04-03 03:08:00,
2013-04-02 22:09:00,39.5,38.5,30.17,ENE,75,0.0,0.0,96,0.00,,---,0.39,VWS V14.00,2013-04-03 03:09:00,
2013-04-02 22:10:00,39.4,38.4,30.17,East,85,0.0,2.0,96,0.00,,---,0.39,VWS V14.00,2013-04-03 03:10:00,
2013-04-02 22:12:00,39.7,38.7,30.17,NE,35,2.0,5.0,96,0.00,,---,0.39,VWS V14.00,2013-04-03 03:12:00,
2013-04-02 22:13:00,39.4,38.4,30.17,NE,54,1.0,7.0,96,0.00,,---,0.39,VWS V14.00,2013-04-03 03:13:00,
2013-04-02 22:14:00,39.4,38.4,30.17,ENE,63,0.0,5.0,96,0.00,,---,0.39,VWS V14.00,2013-04-03 03:14:00,
2013-04-02 22:15:00,39.4,38.4,30.17,NNE,27,0.0,0.0,96,0.00,,---,0.39,VWS V14.00,2013-04-03 03:15:00,
2013-04-02 22:16:00,39.4,38.4,30.17,ENE,61,0.0,0.0,96,0.00,,---,0.39,VWS V14.00,2013-04-03 03:16:00,
2013-04-02 22:17:00,39.4,38.1,30.17,NE,54,0.0,0.0,95,0.00,,---,0.39,VWS V14.00,2013-04-03 03:17:00,
2013-04-02 22:18:00,39.4,38.4,30.17,NE,44,2.0,7.0,96,0.00,,---,0.39,VWS V14.00,2013-04-03 03:18:00,
2013-04-02 22:19:00,39.7,38.7,30.17,ENE,63,0.0,0.0,96,0.00,,---,0.39,VWS V14.00,2013-04-03 03:19:00,
2013-04-02 22:20:00,39.4,38.1,30.17,ENE,70,0.0,0.0,95,0.00,,---,0.39,VWS V14.00,2013-04-03 03:20:00,
2013-04-02 22:21:00,39.4,38.1,30.17,NE,35,2.0,3.0,95,0.00,,---,0.39,VWS V14.00,2013-04-03 03:21:00,
2013-04-02 22:22:00,39.4,38.1,30.17,NE,53,0.0,2.0,95,0.00,,---,0.39,VWS V14.00,2013-04-03 03:22:00,
2013-04-02 22:23:00,39.4,38.1,30.17,East,82,0.0,0.0,95,0.00,,---,0.39,VWS V14.00,2013-04-03 03:23:00,
2013-04-02 22:24:00,39.7,38.7,30.17,ENE,71,0.0,0.0,96,0.00,,---,0.39,VWS V14.00,2013-04-03 03:24:00,
2013-04-02 22:25:00,39.4,38.1,30.17,ENE,64,0.0,0.0,95,0.00,,---,0.39,VWS V14.00,2013-04-03 03:25:00,
2013-04-02 22:26:00,39.4,38.1,30.17,ENE,64,0.0,0.0,95,0.00,,---,0.39,VWS V14.00,2013-04-03 03:26:00,
2013-04-02 22:27:00,39.4,38.1,30.17,ENE,68,0.0,4.0,95,0.00,,---,0.39,VWS V14.00,2013-04-03 03:27:00,
2013-04-02 22:28:00,39.4,38.1,30.17,ENE,77,5.0,7.0,95,0.00,,---,0.39,VWS V14.00,2013-04-03 03:28:00,
2013-04-02 22:29:00,39.7,38.7,30.17,ENE,75,1.0,10.0,96,0.00,,---,0.39,VWS V14.00,2013-04-03 03:29:00,
2013-04-02 22:30:00,39.4,38.1,30.16,East,83,0.0,6.0,95,0.00,,---,0.39,VWS V14.00,2013-04-03 03:30:00,
2013-04-02 22:31:00,39.4,38.4,30.16,East,91,6.0,6.0,96,0.00,,---,0.39,VWS V14.00,2013-04-03 03:31:00,
2013-04-02 22:32:00,39.4,38.4,30.16,NE,46,0.0,10.0,96,0.00,,---,0.39,VWS V14.00,2013-04-03 03:32:00,
2013-04-02 22:33:00,39.4,38.1,30.16,ENE,73,2.0,2.0,95,0.00,,---,0.39,VWS V14.00,2013-04-03 03:33:00,
2013-04-02 22:34:00,39.7,38.7,30.17,NNE,12,4.0,10.0,96,0.00,,---,0.39,VWS V14.00,2013-04-03 03:34:00,
2013-04-02 22:35:00,39.4,38.1,30.16,ENE,74,0.0,0.0,95,0.00,,---,0.39,VWS V14.00,2013-04-03 03:35:00,
2013-04-02 22:36:00,39.4,38.1,30.16,North,357,1.0,7.0,95,0.00,,---,0.39,VWS V14.00,2013-04-03 03:36:00,
2013-04-02 22:37:00,39.4,38.1,30.16,ENE,63,2.0,9.0,95,0.00,,---,0.39,VWS V14.00,2013-04-03 03:37:00,
2013-04-02 22:38:00,39.4,38.1,30.16,ENE,71,0.0,9.0,95,0.00,,---,0.39,VWS V14.00,2013-04-03 03:38:00,
2013-04-02 22:39:00,39.6,38.6,30.17,NE,45,0.0,9.0,96,0.00,,---,0.39,VWS V14.00,2013-04-03 03:39:00,
2013-04-02 22:40:00,39.4,38.1,30.16,ENE,63,0.0,3.0,95,0.00,,---,0.39,VWS V14.00,2013-04-03 03:40:00,
2013-04-02 22:41:00,39.4,38.1,30.16,ENE,65,0.0,6.0,95,0.00,,---,0.39,VWS V14.00,2013-04-03 03:41:00,
2013-04-02 22:42:00,39.4,38.1,30.16,NE,53,0.0,10.0,95,0.00,,---,0.39,VWS V14.00,2013-04-03 03:42:00,
2013-04-02 22:43:00,39.4,38.1,30.16,ENE,77,4.0,9.0,95,0.00,,---,0.39,VWS V14.00,2013-04-03 03:43:00,
2013-04-02 22:44:00,39.3,38.0,30.16,NNE,17,0.0,7.0,95,0.00,,---,0.39,VWS V14.00,2013-04-03 03:44:00,
2013-04-02 22:45:00,39.6,38.6,30.17,ENE,75,0.0,7.0,96,0.00,,---,0.39,VWS V14.00,2013-04-03 03:45:00,
2013-04-02 22:46:00,39.3,38.0,30.15,NNE,19,1.0,6.0,95,0.00,,---,0.39,VWS V14.00,2013-04-03 03:46:00,
2013-04-02 22:47:00,39.3,38.0,30.15,ENE,59,3.0,12.0,95,0.00,,---,0.39,VWS V14.00,2013-04-03 03:47:00,
2013-04-02 22:48:00,39.3,38.0,30.15,NE,53,1.0,6.0,95,0.00,,---,0.39,VWS V14.00,2013-04-03 03:48:00,
2013-04-02 22:49:00,39.3,38.0,30.15,East,79,3.0,4.0,95,0.00,,---,0.39,VWS V14.00,2013-04-03 03:49:00,
2013-04-02 22:50:00,39.3,38.0,30.15,ESE,105,0.0,3.0,95,0.00,,---,0.39,VWS V14.00,2013-04-03 03:50:00,
2013-04-02 22:52:00,39.5,38.5,30.17,ENE,75,0.0,3.0,96,0.00,,---,0.39,VWS V14.00,2013-04-03 03:52:00,
2013-04-02 22:53:00,39.3,38.0,30.15,NE,44,0.0,2.0,95,0.00,,---,0.39,VWS V14.00,2013-04-03 03:53:00,
2013-04-02 22:54:00,39.3,38.0,30.15,East,90,3.0,3.0,95,0.00,,---,0.39,VWS V14.00,2013-04-03 03:54:00,
2013-04-02 22:55:00,39.3,38.0,30.15,NNE,21,0.0,9.0,95,0.00,,---,0.39,VWS V14.00,2013-04-03 03:55:00,
2013-04-02 22:56:00,39.3,38.0,30.15,ESE,102,0.0,0.0,95,0.00,,---,0.39,VWS V14.00,2013-04-03 03:56:00,
2013-04-02 22:57:00,39.5,38.5,30.17,ENE,58,0.0,5.0,96,0.00,,---,0.39,VWS V14.00,2013-04-03 03:57:00,
2013-04-02 22:58:00,39.3,38.0,30.15,East,86,0.0,2.0,95,0.00,,---,0.39,VWS V14.00,2013-04-03 03:58:00,
2013-04-02 23:01:00,39.4,38.1,30.15,ENE,65,0.0,0.0,95,0.00,,---,0.39,VWS V14.00,2013-04-03 04:01:00,
2013-04-02 23:03:00,39.4,38.1,30.15,North,5,0.0,0.0,95,0.00,,---,0.39,VWS V14.00,2013-04-03 04:03:00,
2013-04-02 23:04:00,39.4,38.1,30.15,North,5,0.0,0.0,95,0.00,,---,0.39,VWS V14.00,2013-04-03 04:04:00,
2013-04-02 23:07:00,39.4,38.1,30.15,East,86,0.0,4.0,95,0.00,,---,0.39,VWS V14.00,2013-04-03 04:07:00,
2013-04-02 23:14:00,39.5,38.2,30.15,ENE,58,0.0,0.0,95,0.00,,---,0.39,VWS V14.00,2013-04-03 04:14:00,
2013-04-02 23:15:00,39.5,38.2,30.16,ENE,58,0.0,0.0,95,0.00,,---,0.39,VWS V14.00,2013-04-03 04:15:00,
2013-04-02 23:18:00,39.5,38.2,30.16,ENE,71,0.0,0.0,95,0.00,,---,0.39,VWS V14.00,2013-04-03 04:18:00,
2013-04-02 23:19:00,39.5,38.2,30.16,ENE,71,0.0,0.0,95,0.00,,---,0.39,VWS V14.00,2013-04-03 04:19:00,
2013-04-02 23:21:00,39.5,38.2,30.16,ENE,77,0.0,0.0,95,0.00,,---,0.39,VWS V14.00,2013-04-03 04:21:00,
2013-04-02 23:22:00,39.5,37.9,30.16,ENE,68,0.0,3.0,94,0.00,,---,0.39,VWS V14.00,2013-04-03 04:22:00,
2013-04-02 23:23:00,39.4,37.8,30.16,NE,41,0.0,4.0,94,0.00,,---,0.39,VWS V14.00,2013-04-03 04:23:00,
2013-04-02 23:26:00,39.5,37.9,30.16,East,85,0.0,1.0,94,0.00,,---,0.39,VWS V14.00,2013-04-03 04:26:00,
2013-04-02 23:28:00,39.5,37.9,30.16,ENE,74,0.0,8.0,94,0.00,,---,0.39,VWS V14.00,2013-04-03 04:28:00,
2013-04-02 23:30:00,39.5,37.9,30.17,ENE,75,1.0,8.0,94,0.00,,---,0.39,VWS V14.00,2013-04-03 04:30:00,
2013-04-02 23:37:00,39.5,37.7,30.17,ENE,61,0.0,4.0,93,0.00,,---,0.39,VWS V14.00,2013-04-03 04:37:00,
2013-04-02 23:41:00,39.5,37.7,30.17,ENE,65,0.0,10.0,93,0.00,,---,0.39,VWS V14.00,2013-04-03 04:41:00,
2013-04-02 23:57:00,39.6,37.2,30.16,ENE,58,0.0,0.0,91,0.00,,---,0.39,VWS V14.00,2013-04-03 04:57:00,
2013-04-02 23:58:00,39.6,37.2,30.16,ENE,57,0.0,0.0,91,0.00,,---,0.39,VWS V14.00,2013-04-03 04:58:00,